Time;durP1;ratioP1;P1;durP2;ratioP2;P2;SDS_P1;SDS_P2;PMS_P1;PMS_P2;Temp;Humidity;BMP_temperature;BMP_pressure;BME280_temperature;BME280_humidity;BME280_pressure;Samples;Min_cycle;Max_cycle;Signal;HPM_P1;HPM_P2
2022/03/24 00:04:25;;;;;;;43.30;25.87;;;;;5.90;102400.00;;;;10457030;28;20209;-79
2022/03/24 00:09:27;;;;;;;45.30;27.03;;;;;5.90;102408.00;;;;10505920;28;20627;-79
2022/03/24 00:14:29;;;;;;;44.63;26.67;;;;;5.80;102405.00;;;;10489772;28;20270;-79
2022/03/24 00:19:31;;;;;;;47.17;26.23;;;;;5.70;102397.00;;;;10489396;28;20663;-78
2022/03/24 00:24:55;;;;;;;47.73;28.20;;;;;5.60;102393.00;;;;10504883;28;20193;-78
2022/03/24 00:29:57;;;;;;;38.20;26.67;;;;;5.60;102392.00;;;;10521536;28;20234;-78
2022/03/24 00:34:59;;;;;;;43.60;26.37;;;;;5.60;102390.00;;;;10485442;28;20642;-79
2022/03/24 00:40:06;;;;;;;43.43;27.13;;;;;5.60;102382.00;;;;10530076;28;20216;-78
2022/03/24 00:45:10;;;;;;;49.60;27.30;;;;;5.60;102389.00;;;;10522610;28;20193;-78
2022/03/24 00:50:14;;;;;;;46.43;27.57;;;;;5.60;102393.00;;;;10487954;28;20195;-79
2022/03/24 00:55:18;;;;;;;45.17;26.23;;;;;5.50;102395.00;;;;10521368;28;20200;-78
2022/03/24 01:00:22;;;;;;;44.57;26.87;;;;;5.50;102385.00;;;;10507691;28;20219;-79
2022/03/24 01:05:27;;;;;;;45.10;26.40;;;;;5.40;102386.00;;;;10496060;28;20209;-79
2022/03/24 01:10:29;;;;;;;45.93;26.67;;;;;5.40;102386.00;;;;10496538;28;20189;-78
2022/03/24 01:15:31;;;;;;;47.33;27.47;;;;;5.40;102386.00;;;;10495430;28;20243;-79
2022/03/24 01:20:33;;;;;;;48.60;28.47;;;;;5.30;102386.00;;;;10495349;28;20197;-80
2022/03/24 01:25:36;;;;;;;48.33;27.47;;;;;5.30;102385.00;;;;10470182;28;20271;-78
2022/03/24 01:30:40;;;;;;;49.00;27.77;;;;;5.30;102372.00;;;;10512007;28;20235;-78
2022/03/24 01:35:42;;;;;;;46.20;27.57;;;;;5.30;102372.00;;;;10511450;28;20225;-78
2022/03/24 01:40:45;;;;;;;49.53;29.33;;;;;5.20;102366.00;;;;10495248;28;20254;-78
2022/03/24 01:45:49;;;;;;;49.93;28.27;;;;;5.20;102362.00;;;;10478333;28;20197;-78
2022/03/24 01:50:52;;;;;;;47.07;27.47;;;;;5.00;102356.00;;;;10494941;28;20192;-78
2022/03/24 01:55:56;;;;;;;49.77;28.73;;;;;5.00;102357.00;;;;10511268;28;20336;-78
2022/03/24 02:01:26;;;;;;;46.73;27.67;;;;;5.10;102349.00;;;;10493929;28;20267;-77
2022/03/24 02:06:28;;;;;;;52.43;29.37;;;;;5.10;102343.00;;;;10484194;28;20198;-77
2022/03/24 02:11:33;;;;;;;46.67;28.83;;;;;5.00;102341.00;;;;10467870;28;20201;-77
2022/03/24 02:16:38;;;;;;;48.90;29.03;;;;;5.00;102342.00;;;;10435134;28;20205;-77
2022/03/24 02:21:41;;;;;;;42.80;27.17;;;;;5.00;102338.00;;;;10467836;28;20193;-78
2022/03/24 02:26:44;;;;;;;45.93;28.13;;;;;5.00;102346.00;;;;10468140;28;20190;-77
2022/03/24 02:31:48;;;;;;;42.10;25.10;;;;;4.90;102341.00;;;;10509995;28;20201;-77
2022/03/24 02:36:50;;;;;;;43.57;26.30;;;;;4.90;102336.00;;;;10483706;28;20263;-78
2022/03/24 02:41:55;;;;;;;44.03;26.37;;;;;4.80;102343.00;;;;10450731;28;20247;-77
2022/03/24 02:47:00;;;;;;;41.63;26.33;;;;;4.60;102335.00;;;;10476325;28;20193;-77
2022/03/24 02:52:03;;;;;;;42.83;26.47;;;;;4.50;102343.00;;;;10508968;28;20243;-77
2022/03/24 02:57:06;;;;;;;46.43;27.50;;;;;4.40;102348.00;;;;10508287;28;20624;-78
2022/03/24 03:02:12;;;;;;;46.20;27.67;;;;;4.30;102353.00;;;;10508747;28;20200;-77
2022/03/24 03:07:15;;;;;;;48.60;28.30;;;;;4.20;102348.00;;;;10507618;28;20193;-78
2022/03/24 03:12:17;;;;;;;46.20;27.13;;;;;4.20;102340.00;;;;10475102;28;20839;-78
2022/03/24 03:17:19;;;;;;;45.73;27.00;;;;;4.10;102344.00;;;;10490166;28;20211;-78
2022/03/24 03:22:21;;;;;;;47.13;27.70;;;;;4.10;102348.00;;;;10490306;28;20532;-77
2022/03/24 03:27:23;;;;;;;47.57;28.70;;;;;4.00;102346.00;;;;10491004;28;20193;-77
2022/03/24 03:32:25;;;;;;;49.27;28.57;;;;;3.90;102350.00;;;;10474004;28;20192;-77
2022/03/24 03:37:27;;;;;;;56.00;29.87;;;;;3.80;102344.00;;;;10473527;28;20236;-78
2022/03/24 03:42:29;;;;;;;51.67;30.10;;;;;3.70;102340.00;;;;10518197;28;20191;-77
2022/03/24 03:47:31;;;;;;;51.33;30.60;;;;;3.60;102343.00;;;;10548524;28;20596;-77
2022/03/24 03:52:32;;;;;;;55.60;30.30;;;;;3.50;102348.00;;;;10531417;28;20692;-78
2022/03/24 03:57:34;;;;;;;50.93;29.67;;;;;3.40;102342.00;;;;10530501;28;20205;-78
2022/03/24 04:02:37;;;;;;;51.07;27.53;;;;;3.40;102334.00;;;;10564539;28;20192;-77
2022/03/24 04:07:39;;;;;;;51.03;28.40;;;;;3.30;102354.00;;;;10518582;28;20196;-78
2022/03/24 04:12:43;;;;;;;51.40;29.70;;;;;3.20;102348.00;;;;10531155;28;20193;-77
2022/03/24 04:17:45;;;;;;;48.83;29.33;;;;;3.20;102351.00;;;;10547316;28;20216;-77
2022/03/24 04:22:48;;;;;;;56.73;30.53;;;;;3.20;102350.00;;;;10547113;28;20192;-77
2022/03/24 04:27:50;;;;;;;49.20;27.97;;;;;3.10;102354.00;;;;10529970;28;20184;-77
2022/03/24 04:32:53;;;;;;;48.47;28.53;;;;;3.10;102357.00;;;;10563494;28;20188;-77
2022/03/24 04:37:55;;;;;;;56.87;29.07;;;;;3.00;102356.00;;;;10525579;28;20231;-77
2022/03/24 04:42:57;;;;;;;61.00;30.83;;;;;3.00;102346.00;;;;10546819;28;20188;-77
2022/03/24 04:48:00;;;;;;;56.33;29.53;;;;;2.90;102351.00;;;;10529789;28;20210;-77
2022/03/24 04:53:02;;;;;;;44.67;27.97;;;;;2.80;102352.00;;;;10529604;28;20608;-77
2022/03/24 04:58:04;;;;;;;49.90;27.57;;;;;2.70;102354.00;;;;10529386;28;20204;-78
2022/03/24 05:03:07;;;;;;;47.07;27.63;;;;;2.60;102351.00;;;;10512648;28;20200;-78
2022/03/24 05:08:09;;;;;;;49.10;28.33;;;;;2.60;102347.00;;;;10447680;28;20201;-77
2022/03/24 05:13:11;;;;;;;50.77;28.40;;;;;2.60;102351.00;;;;10462333;28;20564;-78
2022/03/24 05:18:13;;;;;;;49.50;28.63;;;;;2.50;102360.00;;;;10446246;28;20206;-78
2022/03/24 05:23:14;;;;;;;58.50;29.13;;;;;2.50;102357.00;;;;10479145;28;20598;-78
2022/03/24 05:28:16;;;;;;;53.00;27.93;;;;;2.40;102357.00;;;;10496377;28;20190;-77
2022/03/24 05:33:18;;;;;;;52.53;28.57;;;;;2.40;102357.00;;;;10470498;28;20223;-78
2022/03/24 05:38:20;;;;;;;54.50;27.83;;;;;2.50;102362.00;;;;10461761;28;20280;-78
2022/03/24 05:43:22;;;;;;;47.33;27.03;;;;;2.50;102354.00;;;;10464296;28;20189;-78
2022/03/24 05:48:24;;;;;;;48.40;27.33;;;;;2.60;102368.00;;;;10509068;28;20262;-78
2022/03/24 05:53:45;;;;;;;58.50;30.73;;;;;2.70;102375.00;;;;10513734;28;20180;-78
2022/03/24 05:58:46;;;;;;;55.77;29.67;;;;;2.80;102369.00;;;;10478729;28;20216;-77
2022/03/24 06:03:50;;;;;;;48.10;28.53;;;;;2.90;102369.00;;;;10481626;28;20206;-78
2022/03/24 06:08:53;;;;;;;55.03;30.67;;;;;3.20;102371.00;;;;10519813;28;20189;-77
2022/03/24 06:13:55;;;;;;;49.00;26.77;;;;;3.60;102371.00;;;;10510499;28;20550;-77
2022/03/24 06:18:59;;;;;;;49.73;27.43;;;;;3.90;102369.00;;;;10510586;28;20212;-78
2022/03/24 06:24:01;;;;;;;46.57;27.13;;;;;4.30;102369.00;;;;10526837;28;20216;-78
2022/03/24 06:29:03;;;;;;;44.27;26.70;;;;;4.60;102383.00;;;;10463114;28;20648;-79
2022/03/24 06:34:05;;;;;;;46.47;28.77;;;;;4.90;102384.00;;;;10458886;28;20193;-79
2022/03/24 06:39:11;;;;;;;44.20;27.97;;;;;5.20;102378.00;;;;10506437;28;20216;-79
2022/03/24 06:44:13;;;;;;;44.97;27.10;;;;;5.60;102389.00;;;;10476830;28;20193;-79
2022/03/24 06:49:15;;;;;;;49.37;28.27;;;;;6.00;102392.00;;;;10474774;28;20193;-78
2022/03/24 06:54:17;;;;;;;42.77;27.43;;;;;6.50;102390.00;;;;10520138;28;20211;-79
2022/03/24 06:59:19;;;;;;;46.83;29.47;;;;;7.20;102385.00;;;;10483502;28;20307;-79
2022/03/24 07:04:21;;;;;;;41.93;28.80;;;;;8.00;102383.00;;;;10524572;28;20288;-79
2022/03/24 07:09:23;;;;;;;44.83;29.00;;;;;8.70;102386.00;;;;10508927;28;20186;-79
2022/03/24 07:14:25;;;;;;;47.13;30.63;;;;;9.20;102392.00;;;;10491307;28;20196;-79
2022/03/24 07:19:27;;;;;;;45.47;28.77;;;;;9.70;102392.00;;;;10505507;28;20679;-80
2022/03/24 07:24:29;;;;;;;50.10;33.00;;;;;10.30;102397.00;;;;10449714;28;20193;-77
2022/03/24 07:29:32;;;;;;;56.80;34.73;;;;;10.80;102400.00;;;;10504302;28;20188;-77
2022/03/24 07:34:34;;;;;;;56.27;34.53;;;;;11.30;102408.00;;;;10507749;28;20242;-77
2022/03/24 07:39:37;;;;;;;57.63;36.57;;;;;11.70;102409.00;;;;10475255;28;20224;-78
2022/03/24 07:44:39;;;;;;;66.10;37.37;;;;;12.20;102407.00;;;;10485146;28;20652;-78
2022/03/24 07:49:41;;;;;;;64.00;41.90;;;;;12.70;102410.00;;;;10509718;28;20208;-77
2022/03/24 07:55:01;;;;;;;70.90;43.83;;;;;13.00;102413.00;;;;10479086;28;20537;-77
2022/03/24 08:00:04;;;;;;;69.10;42.80;;;;;13.30;102410.00;;;;10486087;28;20216;-77
2022/03/24 08:05:10;;;;;;;65.33;40.40;;;;;13.70;102418.00;;;;10533300;28;20240;-77
2022/03/24 08:10:12;;;;;;;67.73;44.30;;;;;14.00;102423.00;;;;10504134;28;20196;-77
2022/03/24 08:15:14;;;;;;;74.43;47.80;;;;;14.50;102429.00;;;;10491187;28;20189;-77
2022/03/24 08:20:16;;;;;;;74.80;48.13;;;;;14.90;102434.00;;;;10508901;28;20236;-77
2022/03/24 08:25:20;;;;;;;71.03;47.67;;;;;15.30;102433.00;;;;10483848;28;20196;-77
2022/03/24 08:30:22;;;;;;;70.93;48.17;;;;;15.70;102433.00;;;;10505239;28;20212;-77
2022/03/24 08:35:26;;;;;;;70.00;47.07;;;;;16.20;102441.00;;;;10498539;28;20181;-77
2022/03/24 08:40:28;;;;;;;73.45;47.17;;;;;16.60;102435.00;;;;10457755;28;20226;-77
2022/03/24 08:45:31;;;;;;;65.15;45.65;;;;;17.10;102428.00;;;;10480030;28;20193;-77
2022/03/24 08:50:34;;;;;;;77.82;48.10;;;;;17.70;102436.00;;;;10447565;28;20196;-77
2022/03/24 08:55:36;;;;;;;66.85;47.22;;;;;18.00;102438.00;;;;10455704;28;20193;-77
2022/03/24 09:00:38;;;;;;;68.00;46.17;;;;;18.60;102437.00;;;;10496314;28;20330;-77
2022/03/24 09:05:41;;;;;;;67.95;46.63;;;;;19.10;102439.00;;;;10502824;28;20235;-76
2022/03/24 09:10:43;;;;;;;68.97;49.22;;;;;19.30;102441.00;;;;10498340;28;20216;-78
2022/03/24 09:15:45;;;;;;;64.45;49.25;;;;;19.50;102446.00;;;;10502811;28;20215;-77
2022/03/24 09:20:48;;;;;;;71.22;51.13;;;;;19.80;102451.00;;;;10494811;28;20288;-76
2022/03/24 09:25:50;;;;;;;69.47;50.17;;;;;20.10;102453.00;;;;10526011;28;20272;-77
2022/03/24 09:31:12;;;;;;;66.10;47.70;;;;;20.30;102462.00;;;;10481482;28;20546;-77
2022/03/24 09:36:14;;;;;;;71.63;52.75;;;;;20.50;102461.00;;;;10471216;28;20541;-76
2022/03/24 09:41:19;;;;;;;79.03;55.35;;;;;20.80;102455.00;;;;10486476;28;20310;-76
2022/03/24 09:46:21;;;;;;;73.15;51.42;;;;;21.20;102454.00;;;;10451389;28;20288;-76
2022/03/24 09:51:24;;;;;;;68.15;49.88;;;;;21.30;102453.00;;;;10503630;28;20186;-76
2022/03/24 09:56:28;;;;;;;67.88;52.47;;;;;21.10;102450.00;;;;10487322;28;20276;-76
2022/03/24 10:01:30;;;;;;;75.00;52.17;;;;;21.20;102445.00;;;;10510793;28;20213;-76
2022/03/24 10:06:33;;;;;;;70.53;46.38;;;;;21.90;102447.00;;;;10510847;28;20207;-76
2022/03/24 10:11:36;;;;;;;63.92;46.00;;;;;22.60;102444.00;;;;10509822;28;20539;-76
2022/03/24 10:16:44;;;;;;;66.50;46.20;;;;;22.90;102451.00;;;;10510141;28;20242;-76
2022/03/24 10:21:48;;;;;;;68.38;48.13;;;;;22.80;102451.00;;;;10493570;28;20208;-77
2022/03/24 10:27:03;;;;;;;60.78;46.13;;;;;22.70;102440.00;;;;10476581;28;20662;-77
2022/03/24 10:32:11;;;;;;;65.93;47.67;;;;;22.90;102439.00;;;;10493331;28;20193;-77
2022/03/24 10:37:20;;;;;;;68.75;46.67;;;;;22.70;102437.00;;;;10526391;28;20217;-77
2022/03/24 10:42:26;;;;;;;65.60;46.67;;;;;22.30;102438.00;;;;10509525;28;20216;-76
2022/03/24 10:47:41;;;;;;;64.75;46.55;;;;;22.50;102434.00;;;;10525911;28;20193;-77
2022/03/24 10:52:43;;;;;;;55.50;40.90;;;;;23.30;102436.00;;;;10492018;28;20590;-77
2022/03/24 10:57:45;;;;;;;52.63;40.92;;;;;23.50;102432.00;;;;10509021;28;20177;-78
2022/03/24 11:02:47;;;;;;;51.97;40.67;;;;;23.00;102436.00;;;;10525818;28;20200;-77
2022/03/24 11:07:54;;;;;;;54.00;39.10;;;;;23.40;102432.00;;;;10491941;28;20235;-77
2022/03/24 11:12:59;;;;;;;42.05;32.85;;;;;23.60;102428.00;;;;10542579;28;20195;-77
2022/03/24 11:18:02;;;;;;;47.97;31.50;;;;;24.00;102421.00;;;;10512323;28;20203;-77
2022/03/24 11:23:24;;;;;;;44.95;34.15;;;;;24.30;102424.00;;;;10507745;28;20200;-77
2022/03/24 11:28:34;;;;;;;47.88;37.22;;;;;25.00;102415.00;;;;10502051;28;20287;-78
2022/03/24 11:33:44;;;;;;;45.72;36.22;;;;;25.10;102418.00;;;;10521796;28;20659;-78
2022/03/24 11:38:52;;;;;;;37.88;31.30;;;;;25.20;102410.00;;;;10481770;28;20627;-77
2022/03/24 11:44:06;;;;;;;45.33;33.50;;;;;25.20;102413.00;;;;10523463;28;20185;-78
2022/03/24 11:49:26;;;;;;;41.72;32.55;;;;;25.00;102405.00;;;;10506952;28;20197;-77
2022/03/24 11:54:35;;;;;;;41.70;31.17;;;;;24.90;102406.00;;;;10506246;28;20200;-77
2022/03/24 11:59:37;;;;;;;41.75;31.55;;;;;24.90;102399.00;;;;10540433;28;20205;-77
2022/03/24 12:04:46;;;;;;;42.63;29.70;;;;;24.70;102398.00;;;;10541011;28;20201;-78
2022/03/24 12:10:04;;;;;;;42.88;30.55;;;;;24.90;102378.00;;;;10522654;28;20185;-78
2022/03/24 12:15:24;;;;;;;38.30;30.33;;;;;25.00;102382.00;;;;10506137;28;20192;-78
2022/03/24 12:20:26;;;;;;;37.97;27.95;;;;;24.70;102383.00;;;;10522064;28;20243;-77
2022/03/24 12:25:29;;;;;;;34.42;27.52;;;;;24.90;102363.00;;;;10505634;28;20197;-78
2022/03/24 12:30:43;;;;;;;38.85;28.75;;;;;25.10;102371.00;;;;10489058;28;20643;-78
2022/03/24 12:35:53;;;;;;;39.00;28.90;;;;;24.90;102358.00;;;;10542311;28;20248;-78
2022/03/24 12:41:04;;;;;;;36.03;25.15;;;;;25.00;102361.00;;;;10563621;28;20212;-78
2022/03/24 12:46:42;;;;;;;29.52;22.80;;;;;25.00;102355.00;;;;10541278;28;20189;-78
2022/03/24 12:52:03;;;;;;;31.80;24.83;;;;;24.80;102345.00;;;;10505038;28;20223;-78
2022/03/24 12:57:34;;;;;;;35.88;27.65;;;;;24.90;102352.00;;;;10498078;28;20192;-78
2022/03/24 13:02:42;;;;;;;37.00;27.17;;;;;25.20;102340.00;;;;10519212;28;20212;-78
2022/03/24 13:07:49;;;;;;;34.47;27.33;;;;;25.20;102338.00;;;;10518740;28;20635;-78
2022/03/24 13:12:57;;;;;;;35.83;27.40;;;;;25.00;102330.00;;;;10535578;28;20195;-78
2022/03/24 13:18:08;;;;;;;40.80;29.45;;;;;24.80;102332.00;;;;10534586;28;20193;-78
2022/03/24 13:23:12;;;;;;;36.15;28.58;;;;;24.70;102330.00;;;;10534886;28;20196;-78
2022/03/24 13:28:15;;;;;;;35.75;27.67;;;;;25.70;102331.00;;;;10534666;28;20224;-77
2022/03/24 13:33:18;;;;;;;31.98;26.25;;;;;25.80;102330.00;;;;10501744;28;20193;-77
2022/03/24 13:38:22;;;;;;;31.88;24.17;;;;;27.60;102319.00;;;;10517891;28;20216;-78
2022/03/24 13:43:25;;;;;;;35.00;25.42;;;;;27.90;102296.00;;;;10517587;28;20724;-78
2022/03/24 13:48:27;;;;;;;31.45;25.58;;;;;29.00;102293.00;;;;10501680;28;20181;-78
2022/03/24 13:53:30;;;;;;;34.30;24.67;;;;;29.50;102284.00;;;;10517320;28;20196;-78
2022/03/24 13:58:32;;;;;;;35.83;25.83;;;;;29.90;102271.00;;;;10517288;28;20236;-77
2022/03/24 14:03:43;;;;;;;31.92;24.38;;;;;30.40;102264.00;;;;10500602;28;20204;-77
2022/03/24 14:08:48;;;;;;;35.60;25.50;;;;;30.40;102256.00;;;;10511484;28;20189;-78
2022/03/24 14:13:55;;;;;;;36.33;24.70;;;;;30.10;102247.00;;;;10527214;28;20647;-77
2022/03/24 14:19:17;;;;;;;37.28;25.42;;;;;30.60;102239.00;;;;10510489;28;20201;-77
2022/03/24 14:24:37;;;;;;;33.05;23.75;;;;;30.30;102237.00;;;;10510046;28;20674;-77
2022/03/24 14:29:56;;;;;;;29.67;21.15;;;;;28.20;102277.00;;;;10535241;28;20183;-78
2022/03/24 14:35:14;;;;;;;31.67;20.67;;;;;28.20;102219.00;;;;10523169;28;20262;-78
2022/03/24 14:40:38;;;;;;;25.75;17.42;;;;;29.10;102219.00;;;;10550357;28;20215;-77
2022/03/24 14:45:42;;;;;;;29.65;18.35;;;;;27.00;102233.00;;;;10530160;28;20196;-77
2022/03/24 14:50:46;;;;;;;31.35;20.65;;;;;25.70;102229.00;;;;10531281;28;20188;-77
2022/03/24 14:55:49;;;;;;;26.70;20.55;;;;;24.90;102228.00;;;;10551806;28;20188;-77
2022/03/24 15:00:51;;;;;;;30.52;20.88;;;;;25.60;102222.00;;;;10534399;28;20547;-77
2022/03/24 15:05:53;;;;;;;32.63;20.30;;;;;25.30;102227.00;;;;10529671;28;20227;-77
2022/03/24 15:10:55;;;;;;;32.70;20.02;;;;;26.00;102239.00;;;;10508461;28;20227;-77
2022/03/24 15:16:03;;;;;;;26.63;17.27;;;;;26.10;102216.00;;;;10491233;28;20193;-77
2022/03/24 15:21:05;;;;;;;25.15;13.93;;;;;25.70;102226.00;;;;10523419;28;20213;-77
2022/03/24 15:26:07;;;;;;;24.73;19.30;;;;;25.30;102226.00;;;;10524571;28;20200;-77
2022/03/24 15:31:09;;;;;;;27.25;16.05;;;;;24.00;102228.00;;;;10507767;28;20185;-77
2022/03/24 15:36:11;;;;;;;24.38;14.60;;;;;23.70;102228.00;;;;10507359;28;20209;-77
2022/03/24 15:41:13;;;;;;;30.45;15.48;;;;;24.50;102217.00;;;;10524244;28;20533;-77
2022/03/24 15:46:15;;;;;;;25.20;13.05;;;;;24.60;102228.00;;;;10523697;28;20330;-77
2022/03/24 15:51:17;;;;;;;23.50;13.23;;;;;23.30;102230.00;;;;10490560;28;20185;-77
2022/03/24 15:56:19;;;;;;;24.00;14.27;;;;;22.70;102229.00;;;;10506463;28;20200;-77
2022/03/24 16:01:21;;;;;;;19.80;11.35;;;;;22.10;102226.00;;;;10506066;28;20212;-78
2022/03/24 16:06:23;;;;;;;19.92;11.52;;;;;21.20;102234.00;;;;10490416;28;20295;-77
2022/03/24 16:11:26;;;;;;;21.98;11.57;;;;;20.30;102231.00;;;;10528124;28;20180;-77
2022/03/24 16:16:28;;;;;;;20.67;11.30;;;;;19.80;102234.00;;;;10531251;28;20788;-77
2022/03/24 16:21:30;;;;;;;27.02;11.80;;;;;19.50;102234.00;;;;10530437;28;20230;-77
2022/03/24 16:26:32;;;;;;;19.60;11.90;;;;;19.40;102235.00;;;;10547474;28;20237;-77
2022/03/24 16:31:35;;;;;;;22.92;12.63;;;;;19.30;102241.00;;;;10564443;28;20184;-77
2022/03/24 16:36:37;;;;;;;23.35;13.00;;;;;18.90;102241.00;;;;10503194;28;20748;-77
2022/03/24 16:41:39;;;;;;;32.03;12.77;;;;;18.70;102239.00;;;;10489213;28;20582;-77
2022/03/24 16:46:41;;;;;;;21.65;11.57;;;;;18.50;102247.00;;;;10522376;28;20678;-77
2022/03/24 16:51:43;;;;;;;24.45;12.40;;;;;18.30;102243.00;;;;10522311;28;20189;-77
2022/03/24 16:56:46;;;;;;;26.25;13.52;;;;;18.10;102246.00;;;;10489349;28;20193;-78
2022/03/24 17:01:47;;;;;;;20.40;12.82;;;;;17.90;102237.00;;;;10505353;28;20216;-77
2022/03/24 17:06:50;;;;;;;21.13;12.98;;;;;17.70;102249.00;;;;10459166;28;20300;-77
2022/03/24 17:11:52;;;;;;;25.08;13.93;;;;;17.50;102251.00;;;;10447536;28;20239;-78
2022/03/24 17:16:54;;;;;;;16.90;11.85;;;;;17.30;102250.00;;;;10485546;28;20208;-77
2022/03/24 17:21:56;;;;;;;21.63;12.10;;;;;17.10;102252.00;;;;10505177;28;20244;-78
2022/03/24 17:26:58;;;;;;;23.73;12.90;;;;;16.80;102252.00;;;;10488734;28;20793;-77
2022/03/24 17:32:00;;;;;;;19.70;11.93;;;;;16.60;102258.00;;;;10488159;28;20598;-77
2022/03/24 17:37:02;;;;;;;23.43;12.20;;;;;16.20;102258.00;;;;10479389;28;20237;-78
2022/03/24 17:42:04;;;;;;;19.17;11.67;;;;;15.90;102260.00;;;;10546394;28;20208;-78
2022/03/24 17:47:09;;;;;;;20.13;12.30;;;;;15.60;102259.00;;;;10567705;28;20181;-77
2022/03/24 17:52:11;;;;;;;22.57;12.63;;;;;15.20;102267.00;;;;10512489;28;20232;-78
2022/03/24 17:57:13;;;;;;;18.97;11.47;;;;;14.90;102282.00;;;;10495539;28;20215;-78
2022/03/24 18:02:15;;;;;;;20.17;12.37;;;;;14.50;102278.00;;;;10527575;28;20209;-78
2022/03/24 18:07:17;;;;;;;25.30;11.93;;;;;14.20;102277.00;;;;10526184;28;20193;-77
2022/03/24 18:12:20;;;;;;;22.87;11.90;;;;;14.00;102274.00;;;;10494908;28;20292;-77
2022/03/24 18:17:22;;;;;;;25.90;12.57;;;;;13.70;102286.00;;;;10511588;28;20300;-78
2022/03/24 18:22:24;;;;;;;21.90;12.43;;;;;13.50;102299.00;;;;10511620;28;20244;-77
2022/03/24 18:27:26;;;;;;;33.47;15.13;;;;;13.30;102292.00;;;;10511254;28;20197;-77
2022/03/24 18:32:28;;;;;;;29.37;14.77;;;;;13.10;102292.00;;;;10493728;28;20192;-78
2022/03/24 18:37:30;;;;;;;29.93;15.87;;;;;13.10;102300.00;;;;10521814;28;20225;-78
2022/03/24 18:42:32;;;;;;;31.47;16.27;;;;;13.10;102304.00;;;;10452847;28;20218;-77
2022/03/24 18:47:35;;;;;;;35.40;18.43;;;;;13.00;102298.00;;;;10490999;28;20196;-77
2022/03/24 18:52:38;;;;;;;32.40;16.83;;;;;12.80;102306.00;;;;10509648;28;20195;-77
2022/03/24 18:57:40;;;;;;;35.80;18.93;;;;;12.50;102307.00;;;;10509800;28;20600;-77
2022/03/24 19:02:42;;;;;;;33.27;17.13;;;;;12.20;102311.00;;;;10487206;28;20229;-78
2022/03/24 19:07:45;;;;;;;31.40;16.57;;;;;12.00;102312.00;;;;10488508;28;20196;-77
2022/03/24 19:12:46;;;;;;;30.97;16.57;;;;;11.80;102308.00;;;;10509217;28;20181;-77
2022/03/24 19:17:53;;;;;;;32.20;18.00;;;;;11.70;102307.00;;;;10508664;28;20193;-77
2022/03/24 19:22:55;;;;;;;37.70;18.70;;;;;11.60;102309.00;;;;10508544;28;20213;-77
2022/03/24 19:27:58;;;;;;;35.67;18.30;;;;;11.40;102310.00;;;;10491770;28;20199;-77
2022/03/24 19:33:02;;;;;;;36.53;18.40;;;;;11.20;102311.00;;;;10491904;28;20193;-77
2022/03/24 19:38:04;;;;;;;33.30;19.33;;;;;11.10;102317.00;;;;10490928;28;20232;-77
2022/03/24 19:43:07;;;;;;;40.37;21.20;;;;;11.00;102322.00;;;;10525049;28;20212;-77
2022/03/24 19:48:10;;;;;;;38.57;21.97;;;;;10.80;102325.00;;;;10520359;28;20189;-77
2022/03/24 19:53:15;;;;;;;47.67;23.20;;;;;10.60;102320.00;;;;10491624;28;20211;-77
2022/03/24 19:58:17;;;;;;;42.83;21.73;;;;;10.50;102329.00;;;;10490968;28;20253;-77
2022/03/24 20:03:19;;;;;;;36.93;20.37;;;;;10.30;102333.00;;;;10473351;28;20205;-77
2022/03/24 20:08:21;;;;;;;43.10;22.43;;;;;10.20;102326.00;;;;10524743;28;20207;-77
2022/03/24 20:13:23;;;;;;;41.83;21.13;;;;;10.10;102328.00;;;;10514953;28;20193;-77
2022/03/24 20:18:25;;;;;;;50.80;23.37;;;;;10.00;102329.00;;;;10483961;28;20943;-77
2022/03/24 20:23:27;;;;;;;48.80;25.70;;;;;9.90;102331.00;;;;10505994;28;20212;-77
2022/03/24 20:28:29;;;;;;;50.83;25.90;;;;;9.80;102333.00;;;;10505772;28;20193;-77
2022/03/24 20:33:34;;;;;;;50.33;26.03;;;;;9.60;102338.00;;;;10505557;28;20235;-77
2022/03/24 20:38:36;;;;;;;46.37;23.87;;;;;9.50;102342.00;;;;10505095;28;20671;-77
2022/03/24 20:43:38;;;;;;;48.10;26.13;;;;;9.40;102351.00;;;;10472420;28;20212;-77
2022/03/24 20:48:40;;;;;;;48.13;24.67;;;;;9.30;102349.00;;;;10488689;28;20197;-76
2022/03/24 20:53:42;;;;;;;48.40;24.33;;;;;9.20;102352.00;;;;10488826;28;20192;-77
2022/03/24 20:58:44;;;;;;;45.10;24.17;;;;;9.20;102348.00;;;;10505502;28;20195;-77
2022/03/24 21:03:46;;;;;;;49.57;23.87;;;;;9.10;102350.00;;;;10508828;28;20264;-78
2022/03/24 21:08:56;;;;;;;45.87;23.07;;;;;9.00;102349.00;;;;10531561;28;20686;-77
2022/03/24 21:13:59;;;;;;;47.87;23.13;;;;;8.90;102348.00;;;;10564506;28;20188;-77
2022/03/24 21:19:01;;;;;;;48.33;23.00;;;;;8.90;102351.00;;;;10538268;28;20192;-76
2022/03/24 21:24:04;;;;;;;55.47;27.13;;;;;8.80;102358.00;;;;10539034;28;20212;-77
2022/03/24 21:29:10;;;;;;;40.70;22.80;;;;;8.70;102358.00;;;;10572265;28;20188;-77
2022/03/24 21:34:12;;;;;;;42.77;23.40;;;;;8.60;102368.00;;;;10531267;28;20649;-77
2022/03/24 21:39:14;;;;;;;45.40;23.60;;;;;8.50;102365.00;;;;10496184;28;20220;-77
2022/03/24 21:44:16;;;;;;;49.23;23.77;;;;;8.40;102368.00;;;;10495329;28;20193;-77
2022/03/24 21:49:19;;;;;;;42.77;22.97;;;;;8.40;102368.00;;;;10454674;28;20200;-77
2022/03/24 21:54:21;;;;;;;42.37;23.67;;;;;8.20;102367.00;;;;10470728;28;20879;-77
2022/03/24 21:59:23;;;;;;;47.03;22.30;;;;;8.20;102370.00;;;;10473538;28;20193;-77
2022/03/24 22:04:25;;;;;;;45.23;23.47;;;;;8.10;102370.00;;;;10497265;28;20284;-77
2022/03/24 22:09:27;;;;;;;48.87;24.17;;;;;8.00;102383.00;;;;10494725;28;20200;-77
2022/03/24 22:14:30;;;;;;;42.87;22.73;;;;;7.90;102381.00;;;;10494697;28;20186;-77
2022/03/24 22:19:33;;;;;;;45.33;22.93;;;;;7.90;102383.00;;;;10494476;28;20243;-77
2022/03/24 22:24:35;;;;;;;44.30;24.70;;;;;7.90;102384.00;;;;10510458;28;20181;-77
2022/03/24 22:29:36;;;;;;;43.33;23.17;;;;;7.80;102378.00;;;;10493208;28;20185;-77
2022/03/24 22:34:38;;;;;;;43.43;22.63;;;;;7.70;102370.00;;;;10499157;28;20198;-77
2022/03/24 22:39:41;;;;;;;37.37;21.17;;;;;7.70;102377.00;;;;10492420;28;20249;-77
2022/03/24 22:44:43;;;;;;;38.87;23.23;;;;;7.60;102389.00;;;;10499301;28;20192;-77
2022/03/24 22:49:45;;;;;;;41.33;23.97;;;;;7.50;102374.00;;;;10534701;28;20275;-77
2022/03/24 22:54:48;;;;;;;43.47;24.07;;;;;7.40;102371.00;;;;10534419;28;20226;-77
2022/03/24 22:59:50;;;;;;;37.87;23.63;;;;;7.40;102385.00;;;;10568199;28;20257;-77
2022/03/24 23:04:52;;;;;;;47.97;24.10;;;;;7.30;102374.00;;;;10504418;28;20221;-77
2022/03/24 23:09:54;;;;;;;42.43;25.53;;;;;7.20;102377.00;;;;10434919;28;20185;-77
2022/03/24 23:14:56;;;;;;;48.40;25.97;;;;;7.20;102376.00;;;;10472302;28;20192;-77
2022/03/24 23:19:59;;;;;;;42.43;25.20;;;;;7.10;102376.00;;;;10508436;28;20201;-77
2022/03/24 23:25:01;;;;;;;47.50;24.13;;;;;7.10;102375.00;;;;10508593;28;20192;-77
2022/03/24 23:30:05;;;;;;;49.87;25.43;;;;;7.00;102366.00;;;;10508753;28;20275;-77
2022/03/24 23:35:09;;;;;;;44.70;25.27;;;;;6.90;102369.00;;;;10474478;28;20200;-77
2022/03/24 23:40:11;;;;;;;43.90;24.83;;;;;6.80;102381.00;;;;10506711;28;20228;-77
2022/03/24 23:45:14;;;;;;;42.63;25.17;;;;;6.70;102368.00;;;;10507778;28;20216;-77
2022/03/24 23:50:16;;;;;;;51.30;26.17;;;;;6.70;102369.00;;;;10491360;28;20192;-77
2022/03/24 23:55:18;;;;;;;49.20;25.87;;;;;6.60;102372.00;;;;10507273;28;20287;-77
